Time;durP1;ratioP1;P1;durP2;ratioP2;P2;SDS_P1;SDS_P2;PMS_P1;PMS_P2;Temp;Humidity;BMP_temperature;BMP_pressure;BME280_temperature;BME280_humidity;BME280_pressure;Samples;Min_cycle;Max_cycle;Signal;HPM_P1;HPM_P2
2023/10/02 00:02:05;;;;;;;0.10;0.10;;;;;;;10.46;85.32;99373.50;4952930;28;20043;-68
2023/10/02 00:04:35;;;;;;;0.10;0.10;;;;;;;10.48;85.42;99374.03;4957575;28;20051;-70
2023/10/02 00:07:08;;;;;;;0.10;0.10;;;;;;;10.46;85.21;99371.56;4958900;28;20039;-69
2023/10/02 00:09:35;;;;;;;0.10;0.10;;;;;;;10.38;85.42;99369.44;4950765;28;20057;-68
2023/10/02 00:12:07;;;;;;;0.10;0.10;;;;;;;10.30;85.83;99370.00;4965664;28;20055;-68
2023/10/02 00:14:41;;;;;;;0.10;0.10;;;;;;;10.38;86.48;99379.53;4952966;28;20051;-68
2023/10/02 00:17:14;;;;;;;0.10;0.10;;;;;;;10.38;86.31;99379.53;4953259;28;20111;-69
2023/10/02 00:19:44;;;;;;;0.10;0.10;;;;;;;10.41;86.33;99392.66;4948960;28;20066;-69
2023/10/02 00:24:58;;;;;;;0.10;0.10;;;;;;;10.46;86.24;99393.44;4955198;28;20054;-70
2023/10/02 00:27:24;;;;;;;0.10;0.10;;;;;;;10.51;85.55;99387.13;4954356;28;20430;-68
2023/10/02 00:29:57;;;;;;;0.08;0.08;;;;;;;10.52;85.62;99386.03;4969414;28;20047;-68
2023/10/02 00:32:26;;;;;;;0.10;0.10;;;;;;;10.54;85.26;99391.22;4961799;28;20132;-68
2023/10/02 00:34:54;;;;;;;0.10;0.10;;;;;;;10.54;85.15;99383.81;4953028;28;20057;-69
2023/10/02 00:37:20;;;;;;;;;;;;;;;10.60;85.64;99395.53;4953512;28;20057;-70
2023/10/02 00:39:52;;;;;;;0.10;0.10;;;;;;;10.61;85.04;99386.22;4957002;28;19926;-70
2023/10/02 00:42:24;;;;;;;0.05;0.05;;;;;;;10.71;84.85;99393.53;4952862;28;20058;-70
2023/10/02 00:45:01;;;;;;;0.10;0.10;;;;;;;10.69;85.14;99384.81;4952117;28;20061;-69
2023/10/02 00:47:49;;;;;;;0.10;0.10;;;;;;;10.66;85.22;99377.19;4944508;28;20458;-70
2023/10/02 00:50:19;;;;;;;0.10;0.10;;;;;;;10.64;84.98;99383.75;4949430;28;20039;-69
2023/10/02 00:53:05;;;;;;;0.10;0.10;;;;;;;10.54;85.28;99377.56;4951185;28;21210;-68
2023/10/02 00:55:33;;;;;;;0.10;0.10;;;;;;;10.54;85.39;99389.28;4955846;28;20058;-69
2023/10/02 00:58:01;;;;;;;0.10;0.10;;;;;;;10.49;85.58;99383.88;4950601;28;20043;-70
2023/10/02 01:00:35;;;;;;;0.10;0.10;;;;;;;10.53;85.79;99384.09;4953449;28;20057;-69
2023/10/02 01:03:04;;;;;;;0.10;0.10;;;;;;;10.60;85.74;99384.59;4953651;28;20526;-69
2023/10/02 01:05:47;;;;;;;0.10;0.10;;;;;;;10.72;85.34;99395.16;4953391;28;20463;-68
2023/10/02 01:08:42;;;;;;;0.10;0.10;;;;;;;10.82;84.61;99397.81;4960938;28;20593;-69
2023/10/02 01:11:13;;;;;;;0.00;0.00;;;;;;;10.78;83.97;99394.84;4928128;29;20054;-68
2023/10/02 01:13:41;;;;;;;0.10;0.10;;;;;;;10.76;84.17;99401.69;4948158;28;20061;-70
2023/10/02 01:16:08;;;;;;;0.10;0.10;;;;;;;10.74;84.23;99401.16;4957934;28;20050;-68
2023/10/02 01:18:37;;;;;;;0.10;0.10;;;;;;;10.74;84.05;99404.72;4940445;28;20042;-69
2023/10/02 01:21:11;;;;;;;0.10;0.10;;;;;;;10.69;84.38;99398.47;4952900;28;20070;-68
2023/10/02 01:24:06;;;;;;;0.10;0.10;;;;;;;10.71;84.70;99401.72;4935793;28;20051;-68
2023/10/02 01:26:31;;;;;;;0.00;0.00;;;;;;;10.68;84.84;99396.84;4953793;28;20046;-68
2023/10/02 01:28:58;;;;;;;0.10;0.10;;;;;;;10.67;84.84;99400.69;4945237;28;20553;-68
2023/10/02 01:31:44;;;;;;;0.10;0.10;;;;;;;10.57;85.14;99396.91;4954651;28;20047;-70
2023/10/02 01:34:26;;;;;;;0.00;0.00;;;;;;;10.50;85.44;99397.22;4954388;28;20410;-70
2023/10/02 01:36:52;;;;;;;0.10;0.10;;;;;;;10.45;85.93;99394.53;4959047;28;20066;-69
2023/10/02 01:39:21;;;;;;;0.10;0.10;;;;;;;10.48;86.49;99401.38;4954084;28;20053;-68
2023/10/02 01:41:54;;;;;;;0.10;0.10;;;;;;;10.55;86.24;99404.59;4958921;28;20422;-66
2023/10/02 01:44:22;;;;;;;0.10;0.10;;;;;;;10.61;85.99;99400.72;4953343;28;20047;-68
2023/10/02 01:46:50;;;;;;;0.10;0.10;;;;;;;10.65;85.91;99409.16;4962204;28;20105;-68
2023/10/02 01:49:24;;;;;;;0.10;0.10;;;;;;;10.71;85.45;99399.81;4964577;28;20573;-70
2023/10/02 01:51:55;;;;;;;0.10;0.10;;;;;;;10.70;85.15;99411.88;4952880;28;20043;-68
2023/10/02 01:54:25;;;;;;;0.10;0.10;;;;;;;10.50;85.46;99380.03;4960370;28;20078;-68
2023/10/02 01:56:52;;;;;;;0.10;0.10;;;;;;;10.61;85.27;99408.09;4958080;28;20070;-67
2023/10/02 01:59:22;;;;;;;0.10;0.10;;;;;;;10.59;85.53;99402.91;4943631;28;20053;-70
2023/10/02 02:01:52;;;;;;;0.10;0.10;;;;;;;10.70;85.97;99405.56;4952967;28;20147;-70
2023/10/02 02:04:20;;;;;;;0.10;0.10;;;;;;;10.72;85.53;99396.00;4944343;28;20141;-68
2023/10/02 02:06:54;;;;;;;0.10;0.10;;;;;;;10.87;85.31;99411.44;4951640;28;20062;-68
2023/10/02 02:09:24;;;;;;;0.10;0.10;;;;;;;10.87;84.51;99405.97;4960864;28;20081;-66
2023/10/02 02:12:05;;;;;;;0.10;0.10;;;;;;;10.78;84.45;99405.78;4950467;28;20106;-68
2023/10/02 02:14:33;;;;;;;0.10;0.10;;;;;;;10.71;84.57;99412.66;4934092;28;20070;-68
2023/10/02 02:17:01;;;;;;;0.10;0.10;;;;;;;10.70;84.86;99400.09;4958764;28;20384;-69
2023/10/02 02:19:28;;;;;;;0.10;0.10;;;;;;;10.79;84.81;99412.06;4959800;28;20466;-70
2023/10/02 02:21:56;;;;;;;0.10;0.10;;;;;;;10.86;84.89;99409.00;4950671;28;20522;-69
2023/10/02 02:24:44;;;;;;;0.10;0.10;;;;;;;10.89;84.82;99409.22;4962082;28;20225;-67
2023/10/02 02:27:10;;;;;;;;;;;;;;;10.89;84.31;99419.38;4956469;28;20070;-68
2023/10/02 02:29:38;;;;;;;0.10;0.10;;;;;;;10.87;84.10;99413.38;4934500;28;19926;-68
2023/10/02 02:32:07;;;;;;;0.10;0.10;;;;;;;10.88;83.99;99425.94;4949827;28;20062;-67
2023/10/02 02:34:33;;;;;;;0.10;0.10;;;;;;;10.76;83.78;99418.09;4954629;28;20039;-70
2023/10/02 02:37:00;;;;;;;0.10;0.10;;;;;;;10.66;84.33;99426.38;4948853;28;20141;-70
2023/10/02 02:39:27;;;;;;;0.10;0.10;;;;;;;10.64;84.68;99429.41;4952144;28;20430;-69
2023/10/02 02:42:09;;;;;;;0.10;0.10;;;;;;;10.53;83.98;99406.78;4955396;28;20145;-69
2023/10/02 02:44:39;;;;;;;0.10;0.10;;;;;;;10.59;84.21;99429.44;4945884;28;20051;-68
2023/10/02 02:47:09;;;;;;;0.10;0.10;;;;;;;10.58;84.11;99423.16;4950265;28;20051;-68
2023/10/02 02:49:49;;;;;;;0.10;0.10;;;;;;;10.66;83.90;99429.13;4950483;28;20449;-68
2023/10/02 02:52:17;;;;;;;0.10;0.10;;;;;;;10.57;83.81;99426.19;4949775;28;20047;-68
2023/10/02 02:55:26;;;;;;;0.10;0.10;;;;;;;10.55;83.66;99429.19;4951753;28;20125;-68
2023/10/02 02:57:38;;;;;;;0.10;0.10;;;;;;;10.51;83.65;99428.13;4948936;28;20395;-68
2023/10/02 03:00:29;;;;;;;0.10;0.10;;;;;;;10.31;83.86;99429.88;4952273;28;20482;-69
2023/10/02 03:02:57;;;;;;;0.10;0.10;;;;;;;10.24;84.59;99432.06;4944746;28;20085;-68
2023/10/02 03:05:37;;;;;;;0.10;0.10;;;;;;;10.21;84.74;99427.97;4948803;28;20145;-67
2023/10/02 03:08:05;;;;;;;0.10;0.10;;;;;;;10.15;85.34;99420.13;4950311;28;20039;-68
2023/10/02 03:10:39;;;;;;;0.10;0.10;;;;;;;10.12;85.03;99415.19;4964253;28;20065;-68
2023/10/02 03:13:28;;;;;;;0.10;0.10;;;;;;;10.02;85.25;99416.06;4944698;28;20519;-68
2023/10/02 03:15:54;;;;;;;0.10;0.10;;;;;;;9.95;85.80;99423.75;4948297;28;20054;-68
2023/10/02 03:18:24;;;;;;;0.10;0.10;;;;;;;9.92;85.95;99419.66;4933918;28;20043;-69
2023/10/02 03:20:51;;;;;;;0.10;0.10;;;;;;;9.93;86.38;99430.31;4952165;28;20055;-69
2023/10/02 03:23:18;;;;;;;0.10;0.10;;;;;;;9.97;86.09;99433.28;4959676;28;20058;-70
2023/10/02 03:25:48;;;;;;;0.10;0.10;;;;;;;10.01;85.86;99409.81;4953433;28;20051;-70
2023/10/02 03:28:28;;;;;;;0.10;0.10;;;;;;;10.17;85.71;99423.38;4951356;28;20063;-69
2023/10/02 03:30:55;;;;;;;0.10;0.10;;;;;;;10.23;85.22;99424.97;4949935;28;20539;-70
2023/10/02 03:33:21;;;;;;;0.10;0.10;;;;;;;10.30;85.41;99428.22;4949827;28;20178;-70
2023/10/02 03:35:59;;;;;;;0.10;0.10;;;;;;;10.37;85.04;99422.44;4950619;28;20093;-70
2023/10/02 03:38:26;;;;;;;0.08;0.08;;;;;;;10.33;84.45;99426.81;4959649;28;20039;-68
2023/10/02 03:40:57;;;;;;;0.10;0.10;;;;;;;10.25;84.12;99430.97;4963706;28;20074;-70
2023/10/02 03:43:34;;;;;;;0.10;0.10;;;;;;;10.04;84.83;99433.81;4962289;28;20703;-70
2023/10/02 03:46:04;;;;;;;0.10;0.10;;;;;;;9.86;85.37;99431.72;4959038;28;20070;-70
2023/10/02 03:48:32;;;;;;;0.10;0.10;;;;;;;9.69;86.12;99445.69;4938052;28;20137;-70
2023/10/02 03:51:00;;;;;;;0.10;0.10;;;;;;;9.49;86.48;99420.09;4948726;28;20043;-68
2023/10/02 03:53:29;;;;;;;0.10;0.10;;;;;;;9.65;86.61;99448.13;4950692;28;20047;-70
2023/10/02 03:56:36;;;;;;;0.00;0.00;;;;;;;9.61;86.70;99425.22;4949147;28;20078;-70
2023/10/02 03:58:49;;;;;;;0.10;0.10;;;;;;;9.87;86.25;99441.53;4952327;28;20209;-67
2023/10/02 04:01:17;;;;;;;0.10;0.10;;;;;;;9.99;86.38;99450.22;4954301;28;20047;-68
2023/10/02 04:04:11;;;;;;;0.10;0.10;;;;;;;10.09;85.53;99452.09;4971088;28;20054;-71
2023/10/02 04:06:42;;;;;;;0.10;0.10;;;;;;;10.10;84.91;99439.25;4951558;28;20154;-70
2023/10/02 04:09:25;;;;;;;0.10;0.10;;;;;;;9.90;85.04;99433.59;4956709;28;20466;-68
2023/10/02 04:11:54;;;;;;;0.10;0.10;;;;;;;10.02;85.60;99446.94;4956440;28;20043;-68
2023/10/02 04:14:33;;;;;;;0.10;0.10;;;;;;;10.09;85.12;99438.44;4958205;28;20151;-68
2023/10/02 04:17:10;;;;;;;0.10;0.10;;;;;;;10.03;85.14;99459.50;4950992;28;20047;-68
2023/10/02 04:19:40;;;;;;;0.10;0.10;;;;;;;10.00;85.52;99453.75;4942975;28;20049;-69
2023/10/02 04:22:15;;;;;;;0.10;0.10;;;;;;;10.10;85.41;99461.94;4949690;28;20054;-70
2023/10/02 04:24:58;;;;;;;0.10;0.10;;;;;;;10.21;84.91;99458.03;4954311;28;20071;-70
2023/10/02 04:27:27;;;;;;;0.10;0.10;;;;;;;10.23;84.56;99463.22;4950081;28;20202;-71
2023/10/02 04:32:51;;;;;;;0.10;0.10;;;;;;;10.04;85.00;99458.41;4954983;28;20217;-68
2023/10/02 04:38:07;;;;;;;0.10;0.10;;;;;;;10.02;85.50;99476.16;4934420;28;20047;-69
2023/10/02 04:40:44;;;;;;;0.10;0.10;;;;;;;10.12;85.27;99470.66;4958420;28;20077;-69
2023/10/02 04:43:19;;;;;;;0.10;0.10;;;;;;;10.18;85.12;99483.19;4957944;28;20047;-69
2023/10/02 04:45:49;;;;;;;0.10;0.10;;;;;;;10.25;84.87;99482.88;4955614;28;20109;-68
2023/10/02 04:48:16;;;;;;;0.10;0.10;;;;;;;10.34;84.70;99489.41;4958658;28;20101;-68
2023/10/02 04:50:46;;;;;;;0.10;0.10;;;;;;;10.41;84.43;99482.84;4954457;28;20062;-69
2023/10/02 04:55:43;;;;;;;0.10;0.10;;;;;;;10.19;83.45;99489.47;4952192;28;20602;-70
2023/10/02 04:58:19;;;;;;;0.10;0.10;;;;;;;10.08;84.20;99492.25;4949208;28;20056;-71
2023/10/02 05:03:30;;;;;;;0.10;0.10;;;;;;;10.14;84.41;99494.94;4961010;28;20534;-70
2023/10/02 05:06:03;;;;;;;0.08;0.08;;;;;;;10.07;84.52;99503.47;4963212;28;20105;-68
2023/10/02 05:08:34;;;;;;;0.10;0.10;;;;;;;10.00;84.99;99498.31;4947864;28;20055;-69
2023/10/02 05:11:08;;;;;;;0.10;0.10;;;;;;;10.05;85.17;99506.47;4958624;28;20054;-68
2023/10/02 05:16:38;;;;;;;0.10;0.10;;;;;;;10.10;84.51;99502.91;4946839;28;20082;-68
2023/10/02 05:19:09;;;;;;;0.10;0.10;;;;;;;10.12;85.18;99497.16;4947352;28;20193;-70
2023/10/02 05:21:39;;;;;;;0.15;0.15;;;;;;;10.26;84.64;99506.38;4930571;28;20047;-70
2023/10/02 05:24:11;;;;;;;0.10;0.10;;;;;;;10.38;84.00;99507.97;4959480;28;20047;-66
2023/10/02 05:26:44;;;;;;;0.10;0.10;;;;;;;10.35;83.93;99503.88;4957707;28;20050;-67
2023/10/02 05:32:23;;;;;;;0.10;0.10;;;;;;;10.29;83.73;99508.53;4949878;28;20126;-67
2023/10/02 05:35:03;;;;;;;0.10;0.10;;;;;;;10.28;83.88;99509.66;4947328;28;20069;-70
2023/10/02 05:37:31;;;;;;;0.10;0.10;;;;;;;10.36;83.68;99508.25;4949826;28;20142;-70
2023/10/02 05:42:53;;;;;;;0.10;0.10;;;;;;;10.24;83.45;99516.78;4941103;28;20457;-67
2023/10/02 05:45:37;;;;;;;0.10;0.10;;;;;;;10.26;83.84;99517.31;4954270;28;20548;-67
2023/10/02 05:48:08;;;;;;;0.10;0.10;;;;;;;10.40;83.82;99519.44;4930495;28;20659;-67
2023/10/02 05:50:40;;;;;;;0.10;0.10;;;;;;;10.58;83.63;99515.28;4955603;28;20073;-67
2023/10/02 05:53:07;;;;;;;0.10;0.10;;;;;;;10.75;83.40;99515.72;4947147;28;20233;-67
2023/10/02 05:55:56;;;;;;;0.10;0.10;;;;;;;10.89;82.74;99520.56;4950191;28;20055;-67
2023/10/02 05:58:31;;;;;;;0.10;0.10;;;;;;;11.01;82.27;99520.22;4949065;28;20063;-67
2023/10/02 06:01:02;;;;;;;0.10;0.10;;;;;;;11.02;81.53;99519.94;4953768;28;20047;-67
2023/10/02 06:03:34;;;;;;;0.10;0.10;;;;;;;11.02;81.59;99527.31;4967791;28;20055;-67
2023/10/02 06:06:18;;;;;;;0.10;0.10;;;;;;;10.99;81.07;99527.88;4950937;28;20051;-67
2023/10/02 06:08:49;;;;;;;0.10;0.10;;;;;;;10.96;81.09;99526.53;4965913;28;20051;-67
2023/10/02 06:14:14;;;;;;;0.10;0.10;;;;;;;10.91;81.01;99532.84;4955606;28;20055;-67
2023/10/02 06:16:41;;;;;;;0.10;0.10;;;;;;;10.73;81.95;99536.25;4967517;28;20109;-67
2023/10/02 06:19:13;;;;;;;0.10;0.10;;;;;;;10.64;82.43;99546.97;4954443;28;20047;-67
2023/10/02 06:21:45;;;;;;;0.10;0.10;;;;;;;10.67;82.64;99551.06;4950768;28;20055;-67
2023/10/02 06:24:14;;;;;;;0.20;0.20;;;;;;;10.76;82.22;99549.34;4967016;28;20073;-67
2023/10/02 06:26:58;;;;;;;0.10;0.10;;;;;;;10.75;82.08;99548.56;4984017;28;20055;-67
2023/10/02 06:29:28;;;;;;;0.25;0.13;;;;;;;10.71;82.01;99546.66;4953201;28;20069;-67
2023/10/02 06:31:59;;;;;;;0.10;0.10;;;;;;;10.76;82.44;99541.16;4949672;28;20047;-67
2023/10/02 06:34:38;;;;;;;0.10;0.10;;;;;;;10.86;82.23;99548.50;4950092;28;20142;-67
2023/10/02 06:37:11;;;;;;;0.10;0.10;;;;;;;10.96;81.97;99551.16;4950656;28;20055;-68
2023/10/02 06:39:39;;;;;;;0.13;0.10;;;;;;;11.02;81.70;99552.78;4948229;29;20134;-67
2023/10/02 06:42:07;;;;;;;0.00;0.00;;;;;;;11.04;81.64;99549.72;4948795;28;20102;-67
2023/10/02 06:44:41;;;;;;;0.20;0.20;;;;;;;10.92;81.17;99556.38;4961943;28;20050;-67
2023/10/02 06:47:13;;;;;;;0.10;0.10;;;;;;;10.65;82.03;99559.53;4958145;28;20079;-67
2023/10/02 06:49:44;;;;;;;0.10;0.10;;;;;;;10.63;82.75;99548.88;4951138;28;20057;-67
2023/10/02 06:52:16;;;;;;;0.10;0.10;;;;;;;10.68;82.43;99564.44;4971957;28;20121;-67
2023/10/02 06:54:44;;;;;;;0.10;0.10;;;;;;;10.74;82.58;99566.06;4962277;28;20423;-67
2023/10/02 06:57:11;;;;;;;0.10;0.10;;;;;;;10.84;82.16;99562.44;4957664;28;20144;-67
2023/10/02 06:59:38;;;;;;;0.10;0.10;;;;;;;10.93;81.55;99562.66;4972386;28;20105;-67
2023/10/02 07:02:06;;;;;;;0.10;0.10;;;;;;;11.02;81.21;99565.63;4970470;28;20054;-67
2023/10/02 07:04:35;;;;;;;0.10;0.10;;;;;;;11.17;80.73;99568.25;4970408;28;20055;-68
2023/10/02 07:07:03;;;;;;;0.10;0.10;;;;;;;11.30;80.25;99572.25;4971505;28;20082;-67
2023/10/02 07:09:34;;;;;;;0.10;0.10;;;;;;;11.38;79.75;99570.03;4953293;28;20102;-67
2023/10/02 07:12:13;;;;;;;0.10;0.10;;;;;;;11.43;79.36;99576.28;4953162;28;20058;-66
2023/10/02 07:14:41;;;;;;;0.10;0.10;;;;;;;11.38;79.28;99570.03;4982972;28;20054;-67
2023/10/02 07:17:16;;;;;;;0.10;0.10;;;;;;;11.31;79.59;99570.34;4971014;28;20061;-67
2023/10/02 07:19:50;;;;;;;0.10;0.10;;;;;;;11.17;79.94;99562.78;4967145;28;20049;-67
2023/10/02 07:22:23;;;;;;;0.10;0.10;;;;;;;11.18;80.15;99583.56;4987233;28;20137;-67
2023/10/02 07:24:52;;;;;;;0.10;0.10;;;;;;;11.12;80.68;99584.72;4963017;28;20043;-67
2023/10/02 07:27:27;;;;;;;0.10;0.10;;;;;;;10.90;81.23;99590.59;4952033;28;20051;-67
2023/10/02 07:29:56;;;;;;;0.10;0.10;;;;;;;10.69;82.46;99600.81;4953615;28;20408;-68
2023/10/02 07:32:23;;;;;;;0.10;0.10;;;;;;;10.62;82.77;99598.38;4952793;28;20581;-67
2023/10/02 07:34:50;;;;;;;;;;;;;;;10.61;83.05;99602.22;4936530;29;20519;-67
2023/10/02 07:37:22;;;;;;;0.10;0.10;;;;;;;10.60;82.59;99609.56;4949650;29;19933;-67
2023/10/02 07:39:56;;;;;;;0.10;0.10;;;;;;;10.59;82.81;99607.94;4954163;28;20086;-67
2023/10/02 07:42:28;;;;;;;0.10;0.10;;;;;;;10.58;82.64;99605.50;4981539;28;20050;-67
2023/10/02 07:45:11;;;;;;;0.10;0.10;;;;;;;10.59;82.84;99618.88;4971401;28;20058;-67
2023/10/02 07:48:08;;;;;;;0.10;0.10;;;;;;;10.56;83.12;99605.78;4969359;28;20450;-67
2023/10/02 07:50:34;;;;;;;0.10;0.10;;;;;;;10.63;83.49;99617.25;4972908;28;20604;-67
2023/10/02 07:53:06;;;;;;;0.10;0.10;;;;;;;10.56;83.48;99607.72;4965338;28;20211;-67
2023/10/02 07:55:39;;;;;;;0.10;0.10;;;;;;;10.56;83.77;99610.44;4967763;28;20053;-68
2023/10/02 07:58:07;;;;;;;0.10;0.10;;;;;;;10.52;83.55;99609.34;4934717;28;20043;-67
2023/10/02 08:00:38;;;;;;;0.10;0.10;;;;;;;10.55;83.37;99606.88;4952860;28;20083;-68
2023/10/02 08:03:29;;;;;;;0.10;0.10;;;;;;;10.60;83.10;99619.72;4953445;28;20054;-67
2023/10/02 08:05:56;;;;;;;0.10;0.10;;;;;;;10.49;83.46;99613.47;4952699;28;20430;-67
2023/10/02 08:08:33;;;;;;;0.10;0.10;;;;;;;10.46;83.68;99624.97;4968522;28;20046;-67
2023/10/02 08:11:02;;;;;;;0.10;0.10;;;;;;;10.35;84.26;99619.50;4969552;28;20049;-68
2023/10/02 08:13:39;;;;;;;0.10;0.10;;;;;;;10.20;85.09;99625.78;4953708;28;20110;-68
2023/10/02 08:16:14;;;;;;;0.10;0.10;;;;;;;10.03;85.92;99611.63;4969795;28;20054;-69
2023/10/02 08:18:57;;;;;;;0.10;0.10;;;;;;;9.93;86.58;99613.28;4958998;28;20720;-68
2023/10/02 08:21:35;;;;;;;0.10;0.10;;;;;;;10.20;86.44;99634.00;4957588;28;20542;-69
2023/10/02 08:24:04;;;;;;;0.10;0.10;;;;;;;10.16;85.78;99613.78;4952176;28;20392;-69
2023/10/02 08:26:56;;;;;;;0.10;0.10;;;;;;;10.30;85.75;99632.34;4960221;28;20074;-69
2023/10/02 08:29:20;;;;;;;0.10;0.10;;;;;;;10.35;85.32;99644.09;4967476;28;20066;-69
2023/10/02 08:31:49;;;;;;;0.10;0.10;;;;;;;10.36;85.02;99650.34;4955436;28;20050;-69
2023/10/02 08:34:19;;;;;;;0.10;0.10;;;;;;;10.30;85.03;99649.56;4955231;28;20043;-69
2023/10/02 08:36:47;;;;;;;0.10;0.10;;;;;;;10.10;85.56;99619.53;4948266;29;20150;-69
2023/10/02 08:39:21;;;;;;;;;;;;;;;10.22;85.84;99650.13;4951147;29;20054;-69
2023/10/02 08:41:50;;;;;;;0.10;0.10;;;;;;;10.17;85.28;99650.94;4952947;28;20342;-68
2023/10/02 08:44:17;;;;;;;0.10;0.10;;;;;;;10.18;85.23;99657.25;4953086;28;20055;-69
2023/10/02 08:46:43;;;;;;;0.10;0.10;;;;;;;10.28;85.18;99662.66;4956052;28;20430;-69
2023/10/02 08:49:11;;;;;;;0.10;0.10;;;;;;;10.42;84.18;99652.03;4968727;28;20139;-69
2023/10/02 08:51:38;;;;;;;0.10;0.10;;;;;;;10.78;82.81;99660.09;4970359;28;20063;-69
2023/10/02 08:54:05;;;;;;;0.10;0.10;;;;;;;11.18;80.70;99656.66;4968908;28;20047;-69
2023/10/02 08:56:49;;;;;;;0.17;0.17;;;;;;;11.63;78.15;99641.03;4968578;28;20069;-67
2023/10/02 08:59:18;;;;;;;0.10;0.10;;;;;;;11.92;75.98;99653.09;4953509;28;20055;-69
2023/10/02 09:01:48;;;;;;;0.10;0.10;;;;;;;12.06;74.76;99658.75;4948556;28;20067;-68
2023/10/02 09:04:22;;;;;;;0.10;0.10;;;;;;;12.13;73.54;99663.91;4951172;28;20443;-69
2023/10/02 09:06:49;;;;;;;0.10;0.10;;;;;;;12.10;73.72;99661.75;4968574;28;20054;-69
2023/10/02 09:11:58;;;;;;;0.10;0.10;;;;;;;12.01;73.90;99662.34;4957363;28;20162;-69
2023/10/02 09:17:07;;;;;;;0.10;0.10;;;;;;;11.87;73.82;99664.13;4958905;28;20059;-69
2023/10/02 09:19:37;;;;;;;0.10;0.10;;;;;;;11.81;73.87;99674.28;4948868;28;20103;-69
2023/10/02 09:22:10;;;;;;;0.20;0.20;;;;;;;11.69;74.12;99668.34;4964399;28;20059;-69
2023/10/02 09:24:37;;;;;;;0.10;0.10;;;;;;;11.63;75.31;99665.66;4964732;28;20175;-69
2023/10/02 09:27:27;;;;;;;0.17;0.17;;;;;;;11.66;75.00;99666.19;4968460;28;20514;-70
2023/10/02 09:32:47;;;;;;;0.10;0.10;;;;;;;11.58;75.57;99673.09;4969460;28;20083;-67
2023/10/02 09:35:29;;;;;;;0.10;0.10;;;;;;;11.68;75.70;99662.06;4968023;28;20082;-67
2023/10/02 09:37:57;;;;;;;0.10;0.10;;;;;;;11.71;75.15;99661.50;4965598;28;20631;-67
2023/10/02 09:40:24;;;;;;;;;;;;;;;11.66;75.65;99671.66;4947535;29;20070;-67
2023/10/02 09:43:01;;;;;;;0.10;0.10;;;;;;;11.51;76.11;99681.63;4934797;28;19926;-66
2023/10/02 09:45:31;;;;;;;0.10;0.10;;;;;;;11.47;76.59;99675.06;4948035;29;20058;-67
2023/10/02 09:47:59;;;;;;;0.10;0.10;;;;;;;11.42;76.82;99680.56;4951808;28;20057;-67
2023/10/02 09:50:29;;;;;;;0.10;0.10;;;;;;;11.38;77.45;99685.78;4967917;28;20061;-69
2023/10/02 09:52:59;;;;;;;0.10;0.10;;;;;;;11.48;77.22;99687.69;4983409;28;20051;-69
2023/10/02 09:55:47;;;;;;;0.20;0.20;;;;;;;11.57;76.80;99674.19;4963810;28;20137;-69
2023/10/02 09:58:27;;;;;;;0.15;0.15;;;;;;;11.77;76.38;99682.25;4964356;28;20399;-69
2023/10/02 10:01:33;;;;;;;0.20;0.20;;;;;;;12.13;75.16;99681.19;4980168;28;20145;-69
2023/10/02 10:03:59;;;;;;;0.20;0.20;;;;;;;12.72;73.32;99675.63;4959264;28;20066;-69
2023/10/02 10:06:28;;;;;;;0.20;0.20;;;;;;;13.06;71.27;99676.59;4949975;28;20184;-66
2023/10/02 10:11:39;;;;;;;0.20;0.20;;;;;;;14.04;67.70;99685.34;4968334;28;20082;-67
2023/10/02 10:14:39;;;;;;;0.20;0.20;;;;;;;14.85;63.87;99681.41;4953130;28;20043;-69
2023/10/02 10:17:13;;;;;;;0.20;0.20;;;;;;;15.02;63.38;99685.47;4950150;29;20133;-69
2023/10/02 10:19:41;;;;;;;0.20;0.20;;;;;;;14.91;63.57;99689.56;4975112;28;20046;-68
2023/10/02 10:22:39;;;;;;;0.20;0.20;;;;;;;14.08;64.55;99683.59;4960327;28;20411;-69
2023/10/02 10:25:42;;;;;;;0.10;0.10;;;;;;;13.36;67.14;99685.53;4949263;28;20059;-69
2023/10/02 10:28:14;;;;;;;0.20;0.20;;;;;;;13.03;69.04;99685.41;4953169;28;20039;-69
2023/10/02 10:30:46;;;;;;;0.20;0.20;;;;;;;12.87;69.44;99677.38;4951880;28;20070;-69
2023/10/02 10:33:45;;;;;;;0.20;0.20;;;;;;;12.83;69.77;99691.97;4967154;28;20063;-69
2023/10/02 10:36:37;;;;;;;0.20;0.20;;;;;;;12.68;69.85;99690.22;4939451;28;20047;-69
2023/10/02 10:39:30;;;;;;;0.20;0.20;;;;;;;12.75;70.27;99687.94;4965201;28;20147;-69
2023/10/02 10:41:57;;;;;;;0.10;0.10;;;;;;;12.97;69.92;99676.41;4973003;28;20577;-69
2023/10/02 10:44:33;;;;;;;0.20;0.20;;;;;;;13.17;68.64;99685.50;4973789;28;20081;-69
2023/10/02 10:47:03;;;;;;;0.20;0.20;;;;;;;13.34;68.16;99682.25;4958297;28;20149;-69
2023/10/02 10:49:53;;;;;;;0.20;0.20;;;;;;;13.50;67.50;99685.59;4983847;28;20145;-69
2023/10/02 10:52:45;;;;;;;0.68;0.60;;;;;;;14.05;66.70;99675.97;4973318;28;20062;-69
2023/10/02 10:55:32;;;;;;;0.50;0.50;;;;;;;17.50;56.81;99677.47;4971815;28;20061;-67
2023/10/02 10:58:00;;;;;;;0.30;0.30;;;;;;;19.51;50.07;99666.84;4973599;28;20105;-68
2023/10/02 11:00:31;;;;;;;0.20;0.20;;;;;;;20.08;47.68;99678.44;4967851;28;20054;-67
2023/10/02 11:03:07;;;;;;;0.30;0.30;;;;;;;19.58;48.32;99682.09;4954773;28;20058;-67
2023/10/02 11:05:36;;;;;;;0.30;0.30;;;;;;;18.99;49.07;99679.09;4955212;28;20039;-69
2023/10/02 11:08:25;;;;;;;;;;;;;;;18.43;50.80;99679.97;4953980;28;20057;-69
2023/10/02 11:11:02;;;;;;;0.50;0.50;;;;;;;18.53;51.09;99671.28;4956668;28;19933;-70
2023/10/02 11:13:29;;;;;;;0.30;0.30;;;;;;;19.79;47.44;99677.38;4974173;28;20075;-69
2023/10/02 11:16:07;;;;;;;;;;;;;;;19.50;47.72;99681.84;4971110;28;20046;-70
2023/10/02 11:18:39;;;;;;;0.20;0.20;;;;;;;18.62;49.47;99679.56;4957429;28;19926;-68
2023/10/02 11:21:23;;;;;;;0.40;0.40;;;;;;;18.03;50.53;99685.75;4987199;28;20042;-68
2023/10/02 11:23:50;;;;;;;0.30;0.30;;;;;;;17.97;51.34;99683.16;4970808;28;20362;-68
2023/10/02 11:26:21;;;;;;;0.28;0.28;;;;;;;17.74;51.51;99681.69;4974960;28;20137;-68
2023/10/02 11:28:51;;;;;;;0.30;0.30;;;;;;;17.40;52.19;99679.41;4964506;28;20149;-68
2023/10/02 11:31:36;;;;;;;0.20;0.20;;;;;;;17.20;52.45;99678.09;4955121;28;20418;-68
2023/10/02 11:34:05;;;;;;;0.30;0.30;;;;;;;16.78;53.97;99685.91;4957727;28;20066;-68
2023/10/02 11:36:37;;;;;;;0.20;0.20;;;;;;;16.49;54.67;99679.00;4969217;28;20061;-68
2023/10/02 11:39:09;;;;;;;0.20;0.20;;;;;;;16.12;55.70;99676.34;4973153;28;20573;-68
2023/10/02 11:41:37;;;;;;;0.30;0.30;;;;;;;15.86;56.27;99682.47;4967433;28;20043;-68
2023/10/02 11:44:05;;;;;;;0.30;0.30;;;;;;;15.71;56.97;99684.47;4967720;28;20578;-67
2023/10/02 11:46:32;;;;;;;0.20;0.20;;;;;;;15.56;57.99;99680.16;4955317;28;20136;-70
2023/10/02 11:48:58;;;;;;;0.20;0.20;;;;;;;15.39;57.85;99678.03;4947901;28;20053;-69
2023/10/02 11:51:28;;;;;;;0.20;0.20;;;;;;;15.21;58.33;99677.06;4950041;28;20071;-70
2023/10/02 11:53:56;;;;;;;0.22;0.22;;;;;;;15.08;58.65;99681.47;4970617;28;20586;-69
2023/10/02 11:56:23;;;;;;;0.25;0.25;;;;;;;15.05;58.94;99679.34;4960347;28;20047;-69
2023/10/02 11:58:49;;;;;;;;;;;;;;;15.03;59.35;99681.59;4956657;28;20429;-69
2023/10/02 12:01:15;;;;;;;0.30;0.30;;;;;;;15.07;59.61;99674.34;4968663;28;20029;-69
2023/10/02 12:03:41;;;;;;;0.20;0.20;;;;;;;15.27;59.16;99678.59;4970569;28;20227;-70
2023/10/02 12:06:12;;;;;;;0.20;0.20;;;;;;;15.38;58.71;99681.13;4986059;28;20049;-70
2023/10/02 12:08:40;;;;;;;0.20;0.20;;;;;;;15.62;58.33;99686.34;4949334;28;20047;-69
2023/10/02 12:11:08;;;;;;;0.28;0.28;;;;;;;15.79;57.25;99688.41;4955073;28;20283;-69
2023/10/02 12:13:35;;;;;;;0.20;0.20;;;;;;;15.52;57.93;99670.84;4959015;28;20043;-69
2023/10/02 12:16:02;;;;;;;0.20;0.20;;;;;;;15.61;58.46;99690.25;4962869;28;20046;-69
2023/10/02 12:18:32;;;;;;;0.22;0.22;;;;;;;15.56;58.14;99685.66;4967463;28;20101;-69
2023/10/02 12:20:59;;;;;;;0.20;0.20;;;;;;;15.31;57.53;99678.78;4968397;28;20089;-69
2023/10/02 12:23:28;;;;;;;0.20;0.20;;;;;;;15.02;58.29;99685.47;4985747;28;20047;-71
2023/10/02 12:25:56;;;;;;;0.20;0.20;;;;;;;14.83;58.62;99680.06;4986644;28;20051;-69
2023/10/02 12:28:22;;;;;;;0.20;0.20;;;;;;;14.66;58.25;99680.63;4955230;28;20416;-69
2023/10/02 12:30:48;;;;;;;0.20;0.20;;;;;;;14.51;58.64;99681.75;4954385;28;20311;-69
2023/10/02 12:33:14;;;;;;;0.20;0.20;;;;;;;14.34;58.77;99688.66;4966707;28;20093;-69
2023/10/02 12:35:41;;;;;;;0.20;0.20;;;;;;;14.29;59.05;99677.78;4967892;28;20062;-69
2023/10/02 12:38:07;;;;;;;0.20;0.20;;;;;;;14.35;58.92;99684.81;4955213;28;20370;-69
2023/10/02 12:40:33;;;;;;;0.15;0.15;;;;;;;14.36;58.82;99680.09;4950259;28;20054;-68